Time;durP1;ratioP1;P1;durP2;ratioP2;P2;SDS_P1;SDS_P2;PMS_P1;PMS_P2;Temp;Humidity;BMP_temperature;BMP_pressure;BME280_temperature;BME280_humidity;BME280_pressure;Samples;Min_cycle;Max_cycle;Signal;HPM_P1;HPM_P2
2021/08/31 00:01:42;;;;;;;;;;;23.00;52.50;;;;;;1472428;79;704;-79
2021/08/31 00:03:43;;;;;;;;;;;22.90;52.40;;;;;;1473133;79;812;-80
2021/08/31 00:05:45;;;;;;;;;;;22.90;52.20;;;;;;1472738;79;737;-81
2021/08/31 00:07:47;;;;;;;;;;;22.90;52.30;;;;;;1471116;79;1142;-79
2021/08/31 00:09:49;;;;;;;;;;;23.00;52.30;;;;;;1474298;79;827;-79
2021/08/31 00:11:51;;;;;;;;;;;23.00;52.30;;;;;;1474202;79;1952;-80
2021/08/31 00:13:53;;;;;;;;;;;22.90;52.40;;;;;;1466970;79;761;-78
2021/08/31 00:15:55;;;;;;;;;;;22.90;52.50;;;;;;1479662;79;710;-79
2021/08/31 00:18:00;;;;;;;;;;;23.00;52.50;;;;;;1472805;79;1135;-78
2021/08/31 00:20:00;;;;;;;;;;;23.00;52.40;;;;;;1469394;79;1847;-80
2021/08/31 00:22:02;;;;;;;;;;;22.90;52.40;;;;;;1474894;79;764;-82
2021/08/31 00:24:04;;;;;;;;;;;22.90;52.40;;;;;;1474251;79;760;-79
2021/08/31 00:26:06;;;;;;;;;;;22.90;52.30;;;;;;1470787;79;758;-79
2021/08/31 00:28:08;;;;;;;;;;;23.00;52.30;;;;;;1470297;79;1110;-80
2021/08/31 00:30:11;;;;;;;;;;;22.90;52.30;;;;;;1473058;79;1943;-79
2021/08/31 00:32:13;;;;;;;;;;;23.00;52.40;;;;;;1477391;79;755;-82
2021/08/31 00:34:15;;;;;;;;;;;23.00;52.40;;;;;;1472577;79;673;-78
2021/08/31 00:36:16;;;;;;;;;;;22.90;52.50;;;;;;1470976;79;773;-78
2021/08/31 00:38:18;;;;;;;;;;;22.90;52.30;;;;;;1472834;79;1093;-78
2021/08/31 00:40:20;;;;;;;;;;;23.00;52.30;;;;;;1472932;79;800;-79
2021/08/31 00:42:22;;;;;;;;;;;23.00;52.30;;;;;;1528466;74;226459;-57
2021/08/31 00:44:25;;;;;;;;;;;23.00;52.20;;;;;;1540149;75;1165;-58
2021/08/31 00:46:26;;;;;;;;;;;23.00;52.10;;;;;;1539350;76;675;-58
2021/08/31 00:48:28;;;;;;;;;;;23.00;52.00;;;;;;1532634;76;681;-58
2021/08/31 00:50:30;;;;;;;;;;;23.00;52.00;;;;;;1537926;76;1939;-57
2021/08/31 00:52:32;;;;;;;;;;;23.00;52.00;;;;;;1533869;76;735;-57
2021/08/31 00:54:34;;;;;;;;;;;23.00;51.90;;;;;;1531617;76;1125;-57
2021/08/31 00:56:36;;;;;;;;;;;23.00;51.90;;;;;;1532280;76;729;-56
2021/08/31 00:58:41;;;;;;;;;;;23.00;51.80;;;;;;1543132;76;1087;-58
2021/08/31 01:00:43;;;;;;;;;;;23.00;51.80;;;;;;1552747;76;724;-57
2021/08/31 01:02:45;;;;;;;;;;;22.90;51.90;;;;;;1532702;76;1154;-57
2021/08/31 01:04:47;;;;;;;;;;;23.00;51.70;;;;;;1533242;76;744;-57
2021/08/31 01:06:50;;;;;;;;;;;22.90;51.70;;;;;;1543160;76;736;-58
2021/08/31 01:08:52;;;;;;;;;;;22.90;51.80;;;;;;1530490;76;794;-57
2021/08/31 01:10:54;;;;;;;;;;;22.90;51.80;;;;;;1528016;76;1944;-59
2021/08/31 01:12:56;;;;;;;;;;;22.90;51.70;;;;;;1533297;76;1170;-57
2021/08/31 01:14:58;;;;;;;;;;;23.00;51.80;;;;;;1542225;76;788;-58
2021/08/31 01:17:00;;;;;;;;;;;22.90;51.70;;;;;;1535622;76;697;-57
2021/08/31 01:19:02;;;;;;;;;;;22.90;51.80;;;;;;1524553;76;698;-58
2021/08/31 01:21:04;;;;;;;;;;;22.90;51.70;;;;;;1529871;76;731;-58
2021/08/31 01:23:05;;;;;;;;;;;23.00;51.70;;;;;;1529035;76;1165;-58
2021/08/31 01:25:07;;;;;;;;;;;22.90;51.70;;;;;;1534357;76;791;-57
2021/08/31 01:27:09;;;;;;;;;;;22.90;51.70;;;;;;1527103;76;740;-58
2021/08/31 01:29:11;;;;;;;;;;;23.00;51.70;;;;;;1540688;76;789;-59
2021/08/31 01:31:13;;;;;;;;;;;22.90;51.80;;;;;;1533995;76;1933;-58
2021/08/31 01:33:15;;;;;;;;;;;22.90;51.70;;;;;;1532051;76;1144;-57
2021/08/31 01:35:17;;;;;;;;;;;23.00;51.70;;;;;;1535964;76;714;-57
2021/08/31 01:37:19;;;;;;;;;;;22.90;51.70;;;;;;1533220;73;219940;-67
2021/08/31 01:39:21;;;;;;;;;;;23.00;51.70;;;;;;1550283;74;754;-67
2021/08/31 01:41:23;;;;;;;;;;;22.90;51.70;;;;;;1558910;75;739;-67
2021/08/31 01:43:25;;;;;;;;;;;23.00;51.60;;;;;;1554809;74;787;-66
2021/08/31 01:45:27;;;;;;;;;;;23.00;51.70;;;;;;1554397;74;739;-67
2021/08/31 01:47:29;;;;;;;;;;;22.90;51.60;;;;;;1561709;74;1156;-67
2021/08/31 01:49:31;;;;;;;;;;;22.90;51.60;;;;;;1557099;74;776;-67
2021/08/31 01:51:32;;;;;;;;;;;22.90;51.60;;;;;;1562768;74;1918;-67
2021/08/31 01:53:35;;;;;;;;;;;22.90;51.70;;;;;;1554675;74;877;-67
2021/08/31 01:55:36;;;;;;;;;;;22.90;51.80;;;;;;1553565;74;744;-67
2021/08/31 01:57:38;;;;;;;;;;;22.90;51.70;;;;;;1565068;74;1131;-66
2021/08/31 01:59:40;;;;;;;;;;;22.90;51.70;;;;;;1563416;74;713;-68
2021/08/31 02:01:42;;;;;;;;;;;22.90;51.50;;;;;;1570045;74;757;-65
2021/08/31 02:03:44;;;;;;;;;;;22.90;51.50;;;;;;1555256;74;727;-67
2021/08/31 02:05:46;;;;;;;;;;;22.90;51.50;;;;;;1557341;74;774;-66
2021/08/31 02:07:48;;;;;;;;;;;22.90;51.50;;;;;;1560217;74;1062;-67
2021/08/31 02:09:50;;;;;;;;;;;22.90;51.40;;;;;;1558930;74;777;-68
2021/08/31 02:11:51;;;;;;;;;;;22.90;51.40;;;;;;1552397;74;1947;-68
2021/08/31 02:13:53;;;;;;;;;;;22.90;51.50;;;;;;1557093;74;818;-67
2021/08/31 02:15:55;;;;;;;;;;;22.90;51.50;;;;;;1564496;74;804;-67
2021/08/31 02:17:57;;;;;;;;;;;22.90;51.40;;;;;;1574576;74;1133;-66
2021/08/31 02:19:59;;;;;;;;;;;22.90;51.50;;;;;;1558951;74;768;-66
2021/08/31 02:22:01;;;;;;;;;;;22.90;51.50;;;;;;1556790;74;782;-67
2021/08/31 02:24:03;;;;;;;;;;;22.90;51.70;;;;;;1558765;74;762;-67
2021/08/31 02:26:05;;;;;;;;;;;22.90;51.50;;;;;;1558074;74;750;-68
2021/08/31 02:28:06;;;;;;;;;;;22.90;51.60;;;;;;1557526;74;1120;-75
2021/08/31 02:30:09;;;;;;;;;;;22.90;51.70;;;;;;1561222;74;770;-76
2021/08/31 02:32:10;;;;;;;;;;;22.90;51.80;;;;;;1563011;74;1943;-75
2021/08/31 02:34:12;;;;;;;;;;;22.90;51.90;;;;;;1567279;74;785;-76
2021/08/31 02:36:14;;;;;;;;;;;22.90;51.90;;;;;;1564009;74;769;-76
2021/08/31 02:38:16;;;;;;;;;;;22.90;51.90;;;;;;1552908;74;1108;-73
2021/08/31 02:40:18;;;;;;;;;;;22.90;52.00;;;;;;1553138;74;746;-74
2021/08/31 02:42:20;;;;;;;;;;;22.90;52.10;;;;;;1561788;74;800;-71
2021/08/31 02:44:22;;;;;;;;;;;22.90;52.10;;;;;;1554977;74;732;-75
2021/08/31 02:46:24;;;;;;;;;;;22.90;52.20;;;;;;1561674;74;1192;-74
2021/08/31 02:48:25;;;;;;;;;;;22.90;52.30;;;;;;1547464;74;779;-75
2021/08/31 02:50:27;;;;;;;;;;;22.90;52.30;;;;;;1554287;74;748;-73
2021/08/31 02:52:29;;;;;;;;;;;22.90;52.40;;;;;;1553005;74;1925;-74
2021/08/31 02:54:31;;;;;;;;;;;22.90;52.40;;;;;;1572169;74;824;-75
2021/08/31 02:56:33;;;;;;;;;;;22.90;52.40;;;;;;1564218;74;1155;-72
2021/08/31 02:58:35;;;;;;;;;;;22.90;52.50;;;;;;1561838;74;736;-74
2021/08/31 03:00:41;;;;;;;;;;;22.90;52.50;;;;;;1574356;74;715;-74
2021/08/31 03:02:40;;;;;;;;;;;22.90;52.60;;;;;;1558084;74;1141;-75
2021/08/31 03:04:43;;;;;;;;;;;22.90;52.70;;;;;;1569157;74;869;-76
2021/08/31 03:06:44;;;;;;;;;;;23.00;52.70;;;;;;1564691;74;1156;-75
2021/08/31 03:08:46;;;;;;;;;;;22.90;52.70;;;;;;1568576;74;761;-73
2021/08/31 03:10:48;;;;;;;;;;;22.90;52.80;;;;;;1567627;74;823;-73
2021/08/31 03:12:50;;;;;;;;;;;22.90;52.80;;;;;;1562662;74;1939;-71
2021/08/31 03:14:52;;;;;;;;;;;22.90;52.80;;;;;;1563382;74;706;-70
2021/08/31 03:16:54;;;;;;;;;;;22.90;52.80;;;;;;1569362;74;1132;-72
2021/08/31 03:18:56;;;;;;;;;;;22.90;53.00;;;;;;1571054;74;726;-72
2021/08/31 03:20:58;;;;;;;;;;;22.80;52.90;;;;;;1567515;74;665;-72
2021/08/31 03:23:00;;;;;;;;;;;22.90;53.10;;;;;;1573679;74;775;-71
2021/08/31 03:25:02;;;;;;;;;;;22.90;53.10;;;;;;1570835;74;835;-72
2021/08/31 03:27:07;;;;;;;;;;;22.90;53.20;;;;;;1571056;74;1127;-72
2021/08/31 03:29:09;;;;;;;;;;;22.90;53.20;;;;;;1587110;74;752;-72
2021/08/31 03:31:11;;;;;;;;;;;22.90;53.20;;;;;;1575773;74;728;-71
2021/08/31 03:33:13;;;;;;;;;;;22.90;53.20;;;;;;1569454;74;1926;-73
2021/08/31 03:35:15;;;;;;;;;;;22.90;53.20;;;;;;1569072;74;679;-72
2021/08/31 03:37:17;;;;;;;;;;;22.90;53.30;;;;;;1571153;74;1140;-72
2021/08/31 03:39:19;;;;;;;;;;;22.90;53.30;;;;;;1560141;74;808;-71
2021/08/31 03:41:21;;;;;;;;;;;23.00;53.40;;;;;;1573987;74;788;-70
2021/08/31 03:43:23;;;;;;;;;;;22.90;53.40;;;;;;1570127;74;717;-71
2021/08/31 03:45:25;;;;;;;;;;;22.90;53.40;;;;;;1575404;74;758;-72
2021/08/31 03:47:27;;;;;;;;;;;22.90;53.40;;;;;;1569376;74;1120;-68
2021/08/31 03:49:28;;;;;;;;;;;22.90;53.50;;;;;;1574283;74;779;-71
2021/08/31 03:51:30;;;;;;;;;;;23.00;53.60;;;;;;1578014;74;1934;-72
2021/08/31 03:53:32;;;;;;;;;;;22.90;53.60;;;;;;1570247;74;639;-72
2021/08/31 03:55:34;;;;;;;;;;;23.00;53.60;;;;;;1572194;74;790;-71
2021/08/31 03:57:36;;;;;;;;;;;23.00;53.60;;;;;;1560703;74;1124;-72
2021/08/31 03:59:38;;;;;;;;;;;22.90;53.60;;;;;;1556467;74;886;-72
2021/08/31 04:01:40;;;;;;;;;;;23.00;53.60;;;;;;1569334;74;670;-72
2021/08/31 04:03:42;;;;;;;;;;;22.90;53.60;;;;;;1581819;74;740;-71
2021/08/31 04:05:44;;;;;;;;;;;22.90;53.60;;;;;;1560294;74;812;-71
2021/08/31 04:07:46;;;;;;;;;;;23.00;53.60;;;;;;1571738;74;1133;-71
2021/08/31 04:09:48;;;;;;;;;;;22.90;53.70;;;;;;1567988;74;774;-72
2021/08/31 04:11:50;;;;;;;;;;;22.90;53.60;;;;;;1570054;74;1924;-71
2021/08/31 04:13:51;;;;;;;;;;;22.90;53.60;;;;;;1575529;74;707;-71
2021/08/31 04:15:53;;;;;;;;;;;22.90;53.70;;;;;;1567705;74;719;-71
2021/08/31 04:17:55;;;;;;;;;;;22.90;53.70;;;;;;1565771;74;1133;-71
2021/08/31 04:19:57;;;;;;;;;;;22.90;53.80;;;;;;1565902;74;736;-71
2021/08/31 04:21:59;;;;;;;;;;;23.00;53.70;;;;;;1564974;74;717;-71
2021/08/31 04:24:01;;;;;;;;;;;22.90;53.70;;;;;;1565444;74;815;-71
2021/08/31 04:26:03;;;;;;;;;;;23.00;53.70;;;;;;1564539;74;727;-72
2021/08/31 04:28:05;;;;;;;;;;;22.90;53.80;;;;;;1567049;74;1112;-71
2021/08/31 04:30:07;;;;;;;;;;;23.00;53.80;;;;;;1566829;74;714;-70
2021/08/31 04:32:08;;;;;;;;;;;23.00;53.80;;;;;;1567316;74;1938;-70
2021/08/31 04:34:10;;;;;;;;;;;22.90;53.80;;;;;;1567894;74;713;-72
2021/08/31 04:36:12;;;;;;;;;;;23.00;53.80;;;;;;1562187;74;760;-71
2021/08/31 04:38:14;;;;;;;;;;;22.90;53.80;;;;;;1568054;74;1086;-71
2021/08/31 04:40:16;;;;;;;;;;;23.00;53.90;;;;;;1575258;74;730;-68
2021/08/31 04:42:18;;;;;;;;;;;23.00;53.90;;;;;;1576323;74;764;-70
2021/08/31 04:44:20;;;;;;;;;;;22.90;53.90;;;;;;1569845;74;800;-71
2021/08/31 04:46:22;;;;;;;;;;;22.90;53.90;;;;;;1568230;74;1148;-70
2021/08/31 04:48:23;;;;;;;;;;;22.90;53.90;;;;;;1564894;74;786;-71
2021/08/31 04:50:25;;;;;;;;;;;22.90;53.90;;;;;;1572186;74;705;-71
2021/08/31 04:52:27;;;;;;;;;;;22.90;53.90;;;;;;1579033;74;1946;-68
2021/08/31 04:54:29;;;;;;;;;;;22.90;53.90;;;;;;1560701;74;823;-72
2021/08/31 04:56:31;;;;;;;;;;;23.00;53.90;;;;;;1566851;74;1288;-71
2021/08/31 04:58:33;;;;;;;;;;;22.90;53.90;;;;;;1569370;74;808;-71
2021/08/31 05:00:35;;;;;;;;;;;23.00;53.90;;;;;;1581995;74;842;-71
2021/08/31 05:02:37;;;;;;;;;;;22.90;54.00;;;;;;1578714;74;969;-70
2021/08/31 05:04:38;;;;;;;;;;;22.90;53.90;;;;;;1564027;74;791;-71
2021/08/31 05:06:40;;;;;;;;;;;22.90;53.90;;;;;;1568910;74;1132;-71
2021/08/31 05:08:42;;;;;;;;;;;22.90;54.00;;;;;;1576393;74;699;-71
2021/08/31 05:10:44;;;;;;;;;;;22.90;54.00;;;;;;1566414;74;794;-72
2021/08/31 05:12:46;;;;;;;;;;;22.90;53.90;;;;;;1563164;74;1919;-72
2021/08/31 05:14:48;;;;;;;;;;;22.90;53.90;;;;;;1564669;74;733;-73
2021/08/31 05:16:50;;;;;;;;;;;22.90;53.90;;;;;;1562111;74;1205;-73
2021/08/31 05:18:52;;;;;;;;;;;22.90;53.90;;;;;;1561639;74;721;-73
2021/08/31 05:20:54;;;;;;;;;;;22.90;53.90;;;;;;1563079;74;748;-73
2021/08/31 05:22:56;;;;;;;;;;;23.00;53.90;;;;;;1563720;74;774;-73
2021/08/31 05:25:03;;;;;;;;;;;22.90;53.90;;;;;;1565353;74;777;-72
2021/08/31 05:27:03;;;;;;;;;;;22.90;53.90;;;;;;1565839;74;1871;-71
2021/08/31 05:29:05;;;;;;;;;;;22.90;53.90;;;;;;1565076;74;797;-71
2021/08/31 05:31:07;;;;;;;;;;;22.90;53.90;;;;;;1567335;74;717;-72
2021/08/31 05:33:08;;;;;;;;;;;22.90;53.90;;;;;;1564815;74;1935;-72
2021/08/31 05:35:11;;;;;;;;;;;22.90;53.90;;;;;;1576228;74;774;-73
2021/08/31 05:37:13;;;;;;;;;;;22.90;53.90;;;;;;1563153;74;1133;-73
2021/08/31 05:39:14;;;;;;;;;;;22.90;54.00;;;;;;1569308;74;770;-72
2021/08/31 05:41:16;;;;;;;;;;;22.90;53.90;;;;;;1556398;74;795;-71
2021/08/31 05:43:18;;;;;;;;;;;22.90;54.00;;;;;;1577269;74;823;-72
2021/08/31 05:45:20;;;;;;;;;;;22.80;53.80;;;;;;1571861;74;779;-72
2021/08/31 05:47:22;;;;;;;;;;;22.90;53.90;;;;;;1560768;74;1134;-71
2021/08/31 05:49:26;;;;;;;;;;;22.90;54.00;;;;;;1572707;74;793;-71
2021/08/31 05:51:28;;;;;;;;;;;22.90;54.00;;;;;;1578957;74;775;-72
2021/08/31 05:53:30;;;;;;;;;;;22.80;54.00;;;;;;1560585;74;1934;-68
2021/08/31 05:55:32;;;;;;;;;;;22.80;54.00;;;;;;1571235;74;791;-71
2021/08/31 05:57:34;;;;;;;;;;;22.90;54.20;;;;;;1562666;74;1164;-72
2021/08/31 05:59:38;;;;;;;;;;;22.90;54.20;;;;;;1567005;74;806;-71
2021/08/31 06:01:40;;;;;;;;;;;22.80;54.10;;;;;;1564964;74;1657;-72
2021/08/31 06:03:42;;;;;;;;;;;22.90;54.20;;;;;;1581689;74;691;-71
2021/08/31 06:05:44;;;;;;;;;;;22.80;54.20;;;;;;1561118;74;811;-71
2021/08/31 06:07:46;;;;;;;;;;;22.90;54.20;;;;;;1583924;74;1141;-72
2021/08/31 06:09:47;;;;;;;;;;;22.80;54.10;;;;;;1567992;74;769;-71
2021/08/31 06:11:51;;;;;;;;;;;22.90;54.30;;;;;;1562637;74;707;-71
2021/08/31 06:13:53;;;;;;;;;;;22.70;54.20;;;;;;1575095;74;1932;-71
2021/08/31 06:15:55;;;;;;;;;;;22.80;54.20;;;;;;1561025;74;725;-71
2021/08/31 06:17:57;;;;;;;;;;;22.90;54.30;;;;;;1558602;74;1129;-72
2021/08/31 06:19:59;;;;;;;;;;;22.90;54.30;;;;;;1562400;74;841;-72
2021/08/31 06:22:00;;;;;;;;;;;22.80;54.30;;;;;;1567734;74;735;-72
2021/08/31 06:24:02;;;;;;;;;;;22.80;54.40;;;;;;1563792;74;685;-72
2021/08/31 06:26:04;;;;;;;;;;;22.80;54.30;;;;;;1572092;74;764;-71
2021/08/31 06:28:06;;;;;;;;;;;22.80;54.30;;;;;;1570960;74;1101;-71
2021/08/31 06:30:09;;;;;;;;;;;22.80;54.40;;;;;;1569421;74;673;-71
2021/08/31 06:32:10;;;;;;;;;;;22.80;54.40;;;;;;1565164;74;760;-70
2021/08/31 06:34:12;;;;;;;;;;;22.80;54.30;;;;;;1573210;74;1938;-71
2021/08/31 06:36:14;;;;;;;;;;;22.90;54.40;;;;;;1569684;74;728;-71
2021/08/31 06:38:16;;;;;;;;;;;22.90;54.40;;;;;;1564994;74;1129;-70
2021/08/31 06:40:18;;;;;;;;;;;22.80;54.30;;;;;;1568648;74;777;-71
2021/08/31 06:42:20;;;;;;;;;;;22.90;54.40;;;;;;1586067;74;747;-71
2021/08/31 06:44:22;;;;;;;;;;;22.90;54.40;;;;;;1569078;74;764;-70
2021/08/31 06:46:24;;;;;;;;;;;22.90;54.30;;;;;;1569256;74;1169;-71
2021/08/31 06:48:26;;;;;;;;;;;22.80;54.30;;;;;;1568368;74;810;-71
2021/08/31 06:50:28;;;;;;;;;;;22.80;54.20;;;;;;1573976;74;735;-71
2021/08/31 06:52:30;;;;;;;;;;;22.90;54.30;;;;;;1572212;74;1973;-72
2021/08/31 06:54:31;;;;;;;;;;;22.80;54.20;;;;;;1563161;74;923;-73
2021/08/31 06:56:33;;;;;;;;;;;22.90;54.40;;;;;;1566898;74;1157;-71
2021/08/31 06:58:35;;;;;;;;;;;22.80;54.30;;;;;;1567788;74;615;-72
2021/08/31 07:00:37;;;;;;;;;;;22.90;54.50;;;;;;1562819;74;783;-70
2021/08/31 07:02:39;;;;;;;;;;;22.90;54.50;;;;;;1572185;74;732;-71
2021/08/31 07:04:41;;;;;;;;;;;22.90;54.60;;;;;;1573528;74;860;-70
2021/08/31 07:06:43;;;;;;;;;;;22.90;54.60;;;;;;1564835;74;1076;-72
2021/08/31 07:08:45;;;;;;;;;;;22.90;54.40;;;;;;1576172;74;705;-73
2021/08/31 07:10:46;;;;;;;;;;;22.80;54.40;;;;;;1567754;74;767;-73
2021/08/31 07:12:49;;;;;;;;;;;22.90;54.50;;;;;;1568011;74;1939;-73
2021/08/31 07:14:52;;;;;;;;;;;22.90;54.50;;;;;;1572162;74;840;-69
2021/08/31 07:16:54;;;;;;;;;;;22.90;54.50;;;;;;1564084;74;1148;-70
2021/08/31 07:18:56;;;;;;;;;;;22.90;54.50;;;;;;1570729;74;819;-71
2021/08/31 07:20:58;;;;;;;;;;;22.90;54.50;;;;;;1562192;74;732;-71
2021/08/31 07:22:59;;;;;;;;;;;22.90;54.50;;;;;;1567037;74;803;-72
2021/08/31 07:25:01;;;;;;;;;;;23.00;54.60;;;;;;1562288;74;706;-72
2021/08/31 07:27:03;;;;;;;;;;;23.00;54.60;;;;;;1568515;74;1109;-71
2021/08/31 07:29:05;;;;;;;;;;;23.00;54.60;;;;;;1568557;74;798;-70
2021/08/31 07:31:07;;;;;;;;;;;23.00;54.50;;;;;;1578530;74;778;-71
2021/08/31 07:33:10;;;;;;;;;;;23.00;53.70;;;;;;1567882;74;1946;-69
2021/08/31 07:35:12;;;;;;;;;;;22.90;53.40;;;;;;1575903;74;762;-69
2021/08/31 07:37:14;;;;;;;;;;;22.90;53.30;;;;;;1565430;74;2103;-66
2021/08/31 07:39:15;;;;;;;;;;;22.90;53.40;;;;;;1546211;76;702;-66
2021/08/31 07:41:17;;;;;;;;;;;22.90;53.40;;;;;;1582726;73;738;-67
2021/08/31 07:43:19;;;;;;;;;;;22.90;53.30;;;;;;1549160;75;1096;-66
2021/08/31 07:45:21;;;;;;;;;;;22.80;53.10;;;;;;1584619;73;799;-66
2021/08/31 07:47:23;;;;;;;;;;;22.80;53.10;;;;;;1587176;73;1202;-66
2021/08/31 07:49:25;;;;;;;;;;;22.80;53.10;;;;;;1585147;73;804;-67
2021/08/31 07:51:27;;;;;;;;;;;22.80;53.20;;;;;;1562810;74;822;-67
2021/08/31 07:53:29;;;;;;;;;;;22.70;53.20;;;;;;1563859;74;1940;-67
2021/08/31 07:55:31;;;;;;;;;;;22.70;53.20;;;;;;1560360;74;776;-67
2021/08/31 07:57:33;;;;;;;;;;;22.80;53.20;;;;;;1560809;74;1173;-66
2021/08/31 07:59:35;;;;;;;;;;;22.70;53.30;;;;;;1552769;74;701;-66
2021/08/31 08:01:36;;;;;;;;;;;22.70;53.20;;;;;;1589612;74;733;-63
2021/08/31 08:03:38;;;;;;;;;;;22.80;53.30;;;;;;1585248;74;762;-67
2021/08/31 08:05:40;;;;;;;;;;;22.70;53.30;;;;;;1581823;74;691;-66
2021/08/31 08:07:42;;;;;;;;;;;22.70;53.30;;;;;;1580121;74;1137;-67
2021/08/31 08:09:44;;;;;;;;;;;22.70;53.30;;;;;;1587534;74;756;-67
2021/08/31 08:11:46;;;;;;;;;;;22.80;53.30;;;;;;1593829;74;749;-67
2021/08/31 08:13:48;;;;;;;;;;;22.70;53.30;;;;;;1587365;74;1938;-67
2021/08/31 08:15:49;;;;;;;;;;;22.70;53.30;;;;;;1591809;74;726;-66
2021/08/31 08:17:51;;;;;;;;;;;22.70;53.30;;;;;;1584397;74;1139;-66
2021/08/31 08:19:53;;;;;;;;;;;22.70;53.30;;;;;;1577029;74;727;-67
2021/08/31 08:21:55;;;;;;;;;;;22.70;53.40;;;;;;1570261;74;666;-67
2021/08/31 08:23:57;;;;;;;;;;;22.60;53.20;;;;;;1578475;74;702;-67
2021/08/31 08:25:59;;;;;;;;;;;22.70;53.40;;;;;;1589405;74;687;-66
2021/08/31 08:28:01;;;;;;;;;;;22.60;53.30;;;;;;1570239;74;1161;-67
2021/08/31 08:30:03;;;;;;;;;;;22.70;53.40;;;;;;1588495;74;733;-68
2021/08/31 08:32:06;;;;;;;;;;;22.70;53.40;;;;;;1590172;74;709;-67
2021/08/31 08:34:07;;;;;;;;;;;22.70;53.40;;;;;;1584108;74;1940;-67
2021/08/31 08:36:09;;;;;;;;;;;22.60;53.30;;;;;;1588537;74;661;-67
2021/08/31 08:38:11;;;;;;;;;;;22.70;53.40;;;;;;1581917;74;1126;-67
2021/08/31 08:40:13;;;;;;;;;;;22.60;53.30;;;;;;1585384;74;806;-67
2021/08/31 08:42:15;;;;;;;;;;;22.70;53.40;;;;;;1583390;74;804;-67
2021/08/31 08:44:17;;;;;;;;;;;22.70;53.40;;;;;;1577368;74;722;-66
2021/08/31 08:46:19;;;;;;;;;;;22.70;53.40;;;;;;1575481;74;722;-67
2021/08/31 08:48:21;;;;;;;;;;;22.70;53.40;;;;;;1580572;74;1165;-71
2021/08/31 08:50:23;;;;;;;;;;;22.80;53.60;;;;;;1582372;74;782;-71
2021/08/31 08:52:25;;;;;;;;;;;22.70;54.30;;;;;;1584761;74;804;-72
2021/08/31 08:54:27;;;;;;;;;;;22.60;54.70;;;;;;1568895;74;1931;-69
2021/08/31 08:56:29;;;;;;;;;;;22.70;55.10;;;;;;1578422;74;731;-68
2021/08/31 08:58:31;;;;;;;;;;;22.80;55.10;;;;;;1591883;74;1156;-66
2021/08/31 09:00:52;;;;;;;;;;;22.90;54.60;;;;;;1586131;74;737;-68
2021/08/31 09:02:54;;;;;;;;;;;22.90;54.30;;;;;;1587654;74;742;-69
2021/08/31 09:04:55;;;;;;;;;;;22.90;54.10;;;;;;1582787;74;799;-70
2021/08/31 09:06:58;;;;;;;;;;;22.90;54.10;;;;;;1581361;74;1148;-67
2021/08/31 09:09:00;;;;;;;;;;;22.90;54.10;;;;;;1587438;74;706;-66
2021/08/31 09:11:18;;;;;;;;;;;22.90;54.00;;;;;;1591018;74;690;-67
2021/08/31 09:13:23;;;;;;;;;;;22.80;53.90;;;;;;1587401;74;769;-71
2021/08/31 09:15:26;;;;;;;;;;;22.80;53.90;;;;;;1580521;74;697;-72
2021/08/31 09:17:28;;;;;;;;;;;22.90;54.00;;;;;;1589536;74;1187;-74
2021/08/31 09:19:33;;;;;;;;;;;22.80;53.90;;;;;;1591658;74;719;-74
2021/08/31 09:21:36;;;;;;;;;;;22.50;53.90;;;;;;1591964;74;686;-68
2021/08/31 09:23:40;;;;;;;;;;;22.80;54.00;;;;;;1580671;74;699;-69
2021/08/31 09:25:42;;;;;;;;;;;22.80;54.10;;;;;;1569236;74;1535;-69
2021/08/31 09:27:45;;;;;;;;;;;22.90;54.30;;;;;;1568838;74;1162;-68
2021/08/31 09:29:47;;;;;;;;;;;22.90;54.30;;;;;;1574930;74;756;-69
2021/08/31 09:31:51;;;;;;;;;;;22.90;54.20;;;;;;1570614;74;703;-69
2021/08/31 09:33:54;;;;;;;;;;;22.90;54.20;;;;;;1585278;74;1929;-69
2021/08/31 09:36:00;;;;;;;;;;;23.00;54.00;;;;;;1586140;74;750;-70
2021/08/31 09:38:03;;;;;;;;;;;22.90;54.00;;;;;;1576560;74;1142;-71
2021/08/31 09:40:06;;;;;;;;;;;23.00;53.90;;;;;;1577420;74;762;-71
2021/08/31 09:42:08;;;;;;;;;;;23.00;54.00;;;;;;1588842;74;753;-70
2021/08/31 09:44:26;;;;;;;;;;;22.90;53.90;;;;;;1588134;74;683;-76
2021/08/31 09:46:47;;;;;;;;;;;22.90;53.90;;;;;;1574182;74;718;-74
2021/08/31 09:48:49;;;;;;;;;;;22.90;53.90;;;;;;1580800;74;690;-75
2021/08/31 09:50:52;;;;;;;;;;;22.90;53.90;;;;;;1570465;74;720;-71
2021/08/31 09:53:04;;;;;;;;;;;22.90;53.90;;;;;;1585664;74;718;-75
2021/08/31 09:55:06;;;;;;;;;;;22.90;53.90;;;;;;1584873;74;1915;-73
2021/08/31 09:57:09;;;;;;;;;;;22.90;53.90;;;;;;1581734;74;1146;-73
2021/08/31 09:59:11;;;;;;;;;;;22.90;53.90;;;;;;1573826;74;1002;-72
2021/08/31 10:01:13;;;;;;;;;;;22.90;53.90;;;;;;1581426;74;750;-73
2021/08/31 10:03:15;;;;;;;;;;;22.90;53.80;;;;;;1580761;74;706;-76
2021/08/31 10:05:17;;;;;;;;;;;22.90;53.80;;;;;;1578780;74;724;-74
2021/08/31 10:07:20;;;;;;;;;;;22.90;53.80;;;;;;1580500;74;1157;-77
2021/08/31 10:09:22;;;;;;;;;;;22.90;53.80;;;;;;1579853;74;748;-74
2021/08/31 10:11:25;;;;;;;;;;;22.90;53.80;;;;;;1575614;74;716;-74
2021/08/31 10:13:27;;;;;;;;;;;22.90;53.70;;;;;;1577473;74;805;-74
2021/08/31 10:15:30;;;;;;;;;;;22.90;53.80;;;;;;1577220;74;1945;-74
2021/08/31 10:17:31;;;;;;;;;;;23.00;53.70;;;;;;1578868;74;1118;-72
2021/08/31 10:19:33;;;;;;;;;;;22.90;53.60;;;;;;1568954;74;686;-76
2021/08/31 10:21:37;;;;;;;;;;;23.00;53.60;;;;;;1592356;74;696;-73
2021/08/31 10:23:40;;;;;;;;;;;23.00;53.60;;;;;;1594307;74;652;-74
2021/08/31 10:25:42;;;;;;;;;;;23.00;53.50;;;;;;1589517;74;718;-73
2021/08/31 10:27:44;;;;;;;;;;;23.00;53.40;;;;;;1586459;74;1140;-73
2021/08/31 10:29:46;;;;;;;;;;;23.00;53.40;;;;;;1586824;74;723;-75
2021/08/31 10:31:49;;;;;;;;;;;23.00;53.40;;;;;;1573078;74;732;-71
2021/08/31 10:33:51;;;;;;;;;;;23.00;53.40;;;;;;1578961;74;1925;-76
2021/08/31 10:35:53;;;;;;;;;;;23.00;53.30;;;;;;1586728;74;756;-76
2021/08/31 10:37:55;;;;;;;;;;;23.00;53.20;;;;;;1568392;74;1185;-70
2021/08/31 10:39:57;;;;;;;;;;;23.00;53.20;;;;;;1572935;74;789;-72
2021/08/31 10:41:59;;;;;;;;;;;23.00;53.20;;;;;;1578412;74;705;-72
2021/08/31 10:44:01;;;;;;;;;;;23.00;53.20;;;;;;1569090;74;605;-72
2021/08/31 10:46:03;;;;;;;;;;;23.00;53.10;;;;;;1574341;74;682;-70
2021/08/31 10:48:12;;;;;;;;;;;23.00;53.10;;;;;;1570696;74;1149;-73
2021/08/31 10:50:15;;;;;;;;;;;23.00;53.10;;;;;;1563855;74;962;-73
2021/08/31 10:52:17;;;;;;;;;;;23.00;53.10;;;;;;1572954;74;727;-73
2021/08/31 10:54:20;;;;;;;;;;;23.00;53.10;;;;;;1584640;74;1931;-73
2021/08/31 10:56:24;;;;;;;;;;;23.00;53.10;;;;;;1566388;74;971;-73
2021/08/31 10:58:47;;;;;;;;;;;23.00;53.00;;;;;;1578405;74;1206;-73
2021/08/31 11:00:43;;;;;;;;;;;23.00;53.00;;;;;;1584160;74;1114;-73
2021/08/31 11:02:50;;;;;;;;;;;23.00;53.00;;;;;;1582065;74;690;-71
2021/08/31 11:04:54;;;;;;;;;;;23.00;53.00;;;;;;1581770;74;656;-74
2021/08/31 11:06:59;;;;;;;;;;;23.00;53.00;;;;;;1581255;74;1201;-73
2021/08/31 11:09:08;;;;;;;;;;;23.00;52.90;;;;;;1580884;74;730;-73
2021/08/31 11:11:11;;;;;;;;;;;22.90;52.90;;;;;;1577290;74;796;-73
2021/08/31 11:13:24;;;;;;;;;;;23.00;52.90;;;;;;1586305;74;1001;-73
2021/08/31 11:15:26;;;;;;;;;;;23.00;53.00;;;;;;1583267;74;1902;-73
2021/08/31 11:17:32;;;;;;;;;;;23.00;53.00;;;;;;1591908;74;1165;-73
2021/08/31 11:19:34;;;;;;;;;;;23.00;53.00;;;;;;1592527;74;707;-74
2021/08/31 11:21:40;;;;;;;;;;;22.90;53.00;;;;;;1577199;74;742;-73
2021/08/31 11:23:42;;;;;;;;;;;22.90;53.00;;;;;;1583712;74;1034;-74
2021/08/31 11:25:45;;;;;;;;;;;22.90;52.90;;;;;;1587992;74;617;-74
2021/08/31 11:27:50;;;;;;;;;;;22.90;52.90;;;;;;1583086;74;1164;-74
2021/08/31 11:29:56;;;;;;;;;;;23.00;52.90;;;;;;1572926;74;817;-74
2021/08/31 11:32:02;;;;;;;;;;;22.90;52.90;;;;;;1576332;74;707;-74
2021/08/31 11:34:10;;;;;;;;;;;22.90;53.00;;;;;;1580192;74;732;-75
2021/08/31 11:36:08;;;;;;;;;;;22.90;52.90;;;;;;1582766;74;1913;-74
2021/08/31 11:38:10;;;;;;;;;;;22.90;52.90;;;;;;1568226;74;1107;-73
2021/08/31 11:40:12;;;;;;;;;;;22.90;52.90;;;;;;1570299;74;781;-74
2021/08/31 11:42:14;;;;;;;;;;;22.90;53.00;;;;;;1585283;74;739;-74
2021/08/31 11:44:16;;;;;;;;;;;22.90;53.00;;;;;;1590893;74;723;-71
2021/08/31 11:46:19;;;;;;;;;;;22.90;53.00;;;;;;1580859;74;699;-74
2021/08/31 11:48:23;;;;;;;;;;;22.90;53.00;;;;;;1569546;74;1122;-73
2021/08/31 11:50:25;;;;;;;;;;;22.90;53.00;;;;;;1571329;74;1217;-74
2021/08/31 11:52:27;;;;;;;;;;;22.90;53.10;;;;;;1591061;74;715;-74
2021/08/31 11:54:30;;;;;;;;;;;22.80;52.90;;;;;;1586384;74;1920;-74
2021/08/31 11:56:31;;;;;;;;;;;22.80;52.90;;;;;;1571814;74;718;-76
2021/08/31 11:58:44;;;;;;;;;;;22.90;53.00;;;;;;1584410;74;1113;-73
2021/08/31 12:00:46;;;;;;;;;;;22.90;53.10;;;;;;1585729;74;690;-74
2021/08/31 12:02:48;;;;;;;;;;;22.90;53.10;;;;;;1584622;74;738;-74
2021/08/31 12:04:57;;;;;;;;;;;22.90;53.00;;;;;;1579832;74;713;-72
2021/08/31 12:06:59;;;;;;;;;;;22.90;53.10;;;;;;1578149;74;1220;-73
2021/08/31 12:09:01;;;;;;;;;;;23.00;53.00;;;;;;1577753;74;687;-74
2021/08/31 12:11:03;;;;;;;;;;;22.90;53.10;;;;;;1574523;74;729;-75